createdAt,value
2023-05-11T00:00:46.403Z,12.95
2023-05-11T00:01:46.489Z,12.87
2023-05-11T00:02:46.469Z,13.00
2023-05-11T00:03:46.471Z,13.11
2023-05-11T00:04:46.391Z,13.10
2023-05-11T00:05:46.379Z,13.12
2023-05-11T00:06:46.371Z,13.07
2023-05-11T00:07:46.425Z,13.04
2023-05-11T00:08:46.331Z,12.97
2023-05-11T00:09:46.317Z,13.08
2023-05-11T00:10:46.319Z,13.05
2023-05-11T00:11:46.339Z,13.14
2023-05-11T00:12:46.800Z,13.14
2023-05-11T00:13:46.661Z,13.11
2023-05-11T00:14:46.274Z,13.14
2023-05-11T00:15:46.273Z,13.17
2023-05-11T00:16:46.275Z,13.14
2023-05-11T00:17:46.304Z,13.17
2023-05-11T00:18:46.316Z,13.17
2023-05-11T00:19:46.248Z,13.11
2023-05-11T00:20:46.205Z,13.12
2023-05-11T00:21:46.224Z,13.14
2023-05-11T00:22:46.194Z,13.12
2023-05-11T00:23:46.184Z,13.22
2023-05-11T00:24:46.223Z,13.14
2023-05-11T00:25:46.181Z,13.03
2023-05-11T00:26:46.187Z,13.00
2023-05-11T00:27:47.135Z,12.96
2023-05-11T00:28:46.126Z,13.08
2023-05-11T00:29:46.139Z,12.95
2023-05-11T00:30:46.155Z,12.96
2023-05-11T00:31:46.139Z,13.01
2023-05-11T00:32:46.119Z,12.93
2023-05-11T00:33:46.069Z,12.95
2023-05-11T00:34:46.167Z,13.07
2023-05-11T00:35:46.116Z,13.04
2023-05-11T00:36:46.886Z,13.10
2023-05-11T00:37:46.069Z,13.03
2023-05-11T00:38:46.036Z,13.10
2023-05-11T00:39:46.151Z,13.15
2023-05-11T00:40:46.009Z,13.11
2023-05-11T00:41:46.019Z,13.05
2023-05-11T00:42:46.027Z,13.00
2023-05-11T00:43:46.507Z,12.96
2023-05-11T00:44:45.996Z,13.00
2023-05-11T00:45:46.041Z,12.93
2023-05-11T00:46:45.957Z,13.03
2023-05-11T00:47:45.993Z,12.96
2023-05-11T00:48:45.931Z,13.04
2023-05-11T00:49:45.912Z,12.97
2023-05-11T00:50:45.918Z,13.10
2023-05-11T00:51:45.900Z,13.00
2023-05-11T00:52:45.945Z,13.03
2023-05-11T00:53:45.905Z,13.00
2023-05-11T00:54:45.871Z,12.97
2023-05-11T00:55:45.857Z,13.10
2023-05-11T00:56:45.854Z,13.05
2023-05-11T00:57:45.833Z,13.14
2023-05-11T00:58:45.838Z,13.10
2023-05-11T00:59:45.821Z,13.20
2023-05-11T01:00:45.877Z,13.07
2023-05-11T01:01:45.830Z,13.11
2023-05-11T01:02:45.889Z,13.08
2023-05-11T01:03:45.787Z,13.10
2023-05-11T01:04:45.768Z,13.11
2023-05-11T01:05:45.769Z,13.17
2023-05-11T01:06:45.767Z,13.10
2023-05-11T01:07:45.737Z,13.14
2023-05-11T01:08:45.727Z,13.14
2023-05-11T01:09:45.731Z,13.15
2023-05-11T01:10:45.708Z,13.14
2023-05-11T01:11:45.771Z,13.17
2023-05-11T01:12:45.723Z,13.08
2023-05-11T01:13:45.688Z,13.14
2023-05-11T01:14:45.673Z,13.17
2023-05-11T01:15:45.656Z,13.04
2023-05-11T01:16:45.719Z,13.15
2023-05-11T01:17:45.681Z,13.14
2023-05-11T01:18:45.677Z,13.20
2023-05-11T01:19:45.618Z,13.14
2023-05-11T01:20:45.637Z,13.22
2023-05-11T01:21:45.632Z,13.12
2023-05-11T01:22:45.645Z,13.19
2023-05-11T01:23:45.576Z,13.07
2023-05-11T01:24:45.654Z,13.04
2023-05-11T01:25:45.569Z,13.17
2023-05-11T01:26:45.579Z,13.11
2023-05-11T01:27:45.561Z,13.07
2023-05-11T01:28:45.530Z,13.08
2023-05-11T01:29:45.524Z,13.14
2023-05-11T01:30:45.959Z,13.05
2023-05-11T01:31:45.571Z,13.01
2023-05-11T01:32:45.568Z,13.14
2023-05-11T01:33:46.502Z,13.10
2023-05-11T01:34:46.549Z,13.22
2023-05-11T01:35:45.843Z,13.14
2023-05-11T01:36:45.454Z,13.03
2023-05-11T01:37:45.454Z,13.12
2023-05-11T01:38:46.450Z,13.19
2023-05-11T01:39:45.414Z,13.07
2023-05-11T01:40:45.421Z,13.10
2023-05-11T01:41:45.422Z,13.11
2023-05-11T01:42:46.590Z,13.15
2023-05-11T01:43:45.389Z,12.97
2023-05-11T01:44:45.391Z,12.97
2023-05-11T01:45:45.448Z,13.01
2023-05-11T01:46:45.407Z,12.96
2023-05-11T01:47:45.375Z,12.96
2023-05-11T01:48:45.326Z,13.00
2023-05-11T01:49:46.350Z,12.95
2023-05-11T01:50:45.339Z,12.93
2023-05-11T01:51:45.314Z,12.95
2023-05-11T01:52:45.339Z,13.03
2023-05-11T01:53:45.312Z,13.01
2023-05-11T01:54:45.289Z,12.86
2023-05-11T01:55:45.265Z,12.89
2023-05-11T01:56:45.267Z,12.85
2023-05-11T01:57:45.269Z,12.96
2023-05-11T01:58:45.234Z,12.95
2023-05-11T01:59:45.230Z,12.97
2023-05-11T02:00:45.230Z,13.01
2023-05-11T02:01:45.306Z,12.87
2023-05-11T02:02:45.367Z,12.83
2023-05-11T02:03:45.270Z,12.86
2023-05-11T02:04:45.198Z,12.74
2023-05-11T02:05:45.163Z,12.78
2023-05-11T02:06:45.154Z,12.74
2023-05-11T02:07:45.186Z,12.83
2023-05-11T02:08:45.152Z,12.86
2023-05-11T02:09:45.141Z,12.79
2023-05-11T02:10:45.112Z,12.83
2023-05-11T02:11:45.140Z,12.87
2023-05-11T02:12:45.104Z,12.87
2023-05-11T02:13:45.090Z,12.90
2023-05-11T02:14:45.100Z,13.00
2023-05-11T02:15:45.103Z,12.90
2023-05-11T02:16:45.051Z,12.95
2023-05-11T02:17:47.231Z,12.92
2023-05-11T02:18:45.088Z,12.92
2023-05-11T02:19:45.488Z,12.89
2023-05-11T02:20:45.076Z,12.86
2023-05-11T02:21:45.338Z,12.87
2023-05-11T02:22:45.010Z,12.87
2023-05-11T02:23:44.977Z,12.87
2023-05-11T02:24:44.975Z,13.01
2023-05-11T02:25:45.378Z,12.90
2023-05-11T02:26:44.950Z,13.01
2023-05-11T02:27:44.985Z,12.95
2023-05-11T02:28:45.888Z,12.97
2023-05-11T02:29:44.938Z,13.03
2023-05-11T02:30:44.983Z,13.03
2023-05-11T02:31:44.934Z,13.04
2023-05-11T02:32:44.945Z,13.11
2023-05-11T02:33:44.882Z,13.17
2023-05-11T02:34:44.880Z,13.20
2023-05-11T02:35:45.883Z,13.22
2023-05-11T02:36:44.873Z,13.08
2023-05-11T02:37:44.874Z,13.15
2023-05-11T02:38:44.822Z,13.10
2023-05-11T02:39:44.819Z,13.20
2023-05-11T02:40:44.811Z,13.15
2023-05-11T02:41:44.846Z,13.17
2023-05-11T02:42:44.814Z,13.15
2023-05-11T02:43:44.781Z,13.17
2023-05-11T02:44:44.770Z,13.36
2023-05-11T02:45:44.779Z,13.15
2023-05-11T02:46:44.766Z,13.11
2023-05-11T02:47:44.813Z,13.19
2023-05-11T02:48:44.741Z,13.22
2023-05-11T02:49:44.975Z,13.23
2023-05-11T02:50:44.992Z,13.12
2023-05-11T02:51:45.733Z,13.19
2023-05-11T02:52:44.736Z,13.25
2023-05-11T02:53:44.918Z,13.12
2023-05-11T02:54:44.662Z,13.12
2023-05-11T02:55:44.679Z,13.20
2023-05-11T02:56:45.676Z,13.04
2023-05-11T02:57:44.679Z,13.14
2023-05-11T02:58:44.649Z,13.25
2023-05-11T02:59:44.635Z,13.17
2023-05-11T03:00:44.732Z,13.17
2023-05-11T03:01:44.729Z,13.14
2023-05-11T03:02:44.651Z,13.12
2023-05-11T03:03:44.745Z,13.10
2023-05-11T03:04:44.619Z,13.12
2023-05-11T03:05:44.591Z,13.17
2023-05-11T03:06:44.590Z,13.14
2023-05-11T03:07:44.552Z,13.10
2023-05-11T03:08:44.560Z,13.03
2023-05-11T03:09:44.540Z,12.97
2023-05-11T03:10:44.516Z,12.95
2023-05-11T03:11:44.571Z,13.08
2023-05-11T03:12:44.511Z,12.92
2023-05-11T03:13:44.494Z,13.01
2023-05-11T03:14:44.469Z,13.04
2023-05-11T03:15:44.491Z,13.14
2023-05-11T03:16:44.498Z,13.04
2023-05-11T03:17:44.498Z,12.97
2023-05-11T03:18:45.482Z,12.97
2023-05-11T03:19:46.523Z,12.95
2023-05-11T03:20:44.419Z,13.04
2023-05-11T03:21:44.414Z,12.97
2023-05-11T03:22:44.465Z,13.07
2023-05-11T03:23:44.410Z,13.15
2023-05-11T03:24:44.396Z,13.03
2023-05-11T03:25:46.896Z,13.12
2023-05-11T03:26:44.412Z,13.07
2023-05-11T03:27:45.918Z,12.90
2023-05-11T03:28:44.350Z,12.83
2023-05-11T03:29:44.330Z,12.87
2023-05-11T03:30:44.319Z,12.93
2023-05-11T03:31:44.361Z,12.97
2023-05-11T03:32:44.351Z,12.95
2023-05-11T03:33:44.296Z,12.96
2023-05-11T03:34:44.304Z,13.03
2023-05-11T03:35:44.336Z,12.95
2023-05-11T03:36:44.263Z,12.83
2023-05-11T03:37:45.287Z,12.92
2023-05-11T03:38:44.260Z,12.95
2023-05-11T03:39:44.250Z,13.01
2023-05-11T03:40:44.253Z,13.07
2023-05-11T03:41:44.219Z,12.97
2023-05-11T03:42:44.211Z,12.97
2023-05-11T03:43:44.196Z,12.86
2023-05-11T03:44:44.201Z,12.96
2023-05-11T03:45:44.202Z,12.87
2023-05-11T03:46:44.222Z,12.83
2023-05-11T03:47:44.192Z,12.72
2023-05-11T03:48:44.181Z,12.70
2023-05-11T03:49:44.149Z,12.70
2023-05-11T03:50:44.135Z,12.71
2023-05-11T03:51:44.145Z,12.64
2023-05-11T03:52:44.109Z,12.54
2023-05-11T03:53:44.121Z,12.54
2023-05-11T03:54:44.115Z,12.52
2023-05-11T03:55:44.074Z,12.54
2023-05-11T03:56:44.063Z,12.50
2023-05-11T03:57:44.081Z,12.45
2023-05-11T03:58:44.086Z,12.39
2023-05-11T03:59:44.034Z,12.31
2023-05-11T04:00:44.122Z,12.37
2023-05-11T04:01:44.089Z,12.42
2023-05-11T04:02:44.072Z,12.47
2023-05-11T04:03:44.172Z,12.39
2023-05-11T04:04:44.740Z,12.41
2023-05-11T04:05:43.951Z,12.39
2023-05-11T04:06:43.984Z,12.37
2023-05-11T04:07:43.987Z,12.42
2023-05-11T04:08:44.021Z,12.38
2023-05-11T04:09:43.937Z,12.42
2023-05-11T04:10:43.926Z,12.57
2023-05-11T04:11:43.920Z,12.64
2023-05-11T04:12:43.938Z,12.62
2023-05-11T04:13:43.919Z,12.65
2023-05-11T04:14:43.900Z,12.72
2023-05-11T04:15:43.918Z,12.70
2023-05-11T04:16:43.864Z,12.67
2023-05-11T04:17:43.890Z,12.70
2023-05-11T04:18:43.926Z,12.70
2023-05-11T04:19:43.855Z,12.68
2023-05-11T04:20:44.039Z,12.70
2023-05-11T04:21:43.854Z,12.68
2023-05-11T04:22:43.824Z,12.72
2023-05-11T04:23:43.813Z,12.72
2023-05-11T04:24:43.807Z,12.71
2023-05-11T04:25:43.787Z,12.70
2023-05-11T04:26:43.747Z,12.67
2023-05-11T04:27:44.743Z,12.65
2023-05-11T04:28:43.730Z,12.74
2023-05-11T04:29:43.757Z,12.74
2023-05-11T04:30:43.714Z,12.70
2023-05-11T04:31:43.859Z,12.68
2023-05-11T04:32:43.780Z,12.70
2023-05-11T04:33:43.690Z,12.85
2023-05-11T04:34:43.710Z,12.74
2023-05-11T04:36:15.578Z,12.67
2023-05-11T04:36:43.649Z,12.60
2023-05-11T04:37:43.662Z,12.72
2023-05-11T04:38:43.650Z,12.75
2023-05-11T04:39:43.633Z,12.77
2023-05-11T04:40:43.639Z,12.78
2023-05-11T04:41:43.606Z,12.77
2023-05-11T04:42:43.614Z,12.77
2023-05-11T04:43:43.605Z,12.79
2023-05-11T04:44:43.562Z,12.83
2023-05-11T04:45:43.555Z,12.79
2023-05-11T04:46:43.620Z,12.87
2023-05-11T04:47:43.561Z,12.96
2023-05-11T04:48:43.570Z,12.95
2023-05-11T04:49:43.524Z,13.00
2023-05-11T04:50:43.568Z,12.97
2023-05-11T04:51:43.513Z,12.96
2023-05-11T04:52:43.500Z,13.05
2023-05-11T04:53:43.519Z,13.12
2023-05-11T04:54:43.486Z,13.12
2023-05-11T04:55:43.500Z,13.03
2023-05-11T04:56:43.453Z,13.11
2023-05-11T04:57:43.517Z,13.10
2023-05-11T04:58:43.458Z,13.07
2023-05-11T04:59:43.485Z,13.07
2023-05-11T05:00:43.489Z,13.14
2023-05-11T05:01:43.438Z,13.10
2023-05-11T05:02:43.438Z,13.14
2023-05-11T05:03:43.395Z,13.17
2023-05-11T05:04:43.378Z,13.14
2023-05-11T05:05:43.416Z,13.17
2023-05-11T05:06:43.364Z,13.14
2023-05-11T05:07:43.357Z,13.23
2023-05-11T05:08:43.342Z,13.23
2023-05-11T05:09:45.222Z,13.28
2023-05-11T05:10:44.341Z,13.25
2023-05-11T05:11:43.312Z,13.38
2023-05-11T05:12:43.307Z,13.29
2023-05-11T05:13:43.276Z,13.36
2023-05-11T05:14:43.277Z,13.33
2023-05-11T05:15:43.314Z,13.33
2023-05-11T05:16:43.346Z,13.22
2023-05-11T05:17:43.347Z,13.19
2023-05-11T05:18:43.322Z,13.20
2023-05-11T05:19:43.230Z,13.22
2023-05-11T05:20:43.223Z,13.29
2023-05-11T05:21:43.204Z,13.33
2023-05-11T05:22:43.198Z,13.30
2023-05-11T05:23:43.236Z,13.41
2023-05-11T05:24:43.179Z,13.41
2023-05-11T05:25:43.190Z,13.49
2023-05-11T05:26:43.153Z,13.38
2023-05-11T05:27:43.151Z,13.41
2023-05-11T05:28:43.167Z,13.46
2023-05-11T05:29:43.130Z,13.49
2023-05-11T05:30:43.138Z,13.48
2023-05-11T05:31:43.111Z,13.64
2023-05-11T05:32:43.161Z,13.48
2023-05-11T05:33:43.114Z,13.49
2023-05-11T05:34:43.104Z,13.48
2023-05-11T05:35:43.107Z,13.54
2023-05-11T05:36:43.073Z,13.54
2023-05-11T05:37:43.049Z,13.59
2023-05-11T05:38:43.041Z,13.59
2023-05-11T05:39:43.042Z,13.59
2023-05-11T05:40:43.028Z,13.78
2023-05-11T05:41:43.012Z,13.78
2023-05-11T05:42:42.994Z,13.71
2023-05-11T05:43:42.989Z,13.85
2023-05-11T05:44:43.010Z,13.95
2023-05-11T05:45:43.023Z,13.96
2023-05-11T05:46:43.068Z,13.99
2023-05-11T05:47:42.975Z,13.97
2023-05-11T05:48:42.947Z,13.97
2023-05-11T05:49:42.935Z,14.03
2023-05-11T05:50:42.915Z,13.95
2023-05-11T05:51:42.922Z,14.09
2023-05-11T05:52:42.903Z,14.14
2023-05-11T05:53:42.875Z,14.06
2023-05-11T05:54:42.875Z,14.07
2023-05-11T05:55:42.876Z,13.95
2023-05-11T05:56:42.864Z,13.96
2023-05-11T05:57:43.009Z,13.96
2023-05-11T05:58:42.858Z,14.00
2023-05-11T05:59:42.875Z,13.96
2023-05-11T06:00:42.832Z,13.96
2023-05-11T06:01:42.808Z,13.96
2023-05-11T06:02:42.950Z,14.06
2023-05-11T06:03:43.013Z,13.96
2023-05-11T06:04:42.867Z,13.91
2023-05-11T06:05:42.776Z,13.95
2023-05-11T06:06:42.770Z,13.96
2023-05-11T06:07:43.121Z,13.96
2023-05-11T06:08:42.734Z,14.09
2023-05-11T06:09:42.730Z,14.09
2023-05-11T06:10:42.743Z,14.10
2023-05-11T06:11:42.737Z,14.14
2023-05-11T06:12:42.704Z,14.18
2023-05-11T06:13:42.706Z,14.17
2023-05-11T06:14:42.709Z,14.15
2023-05-11T06:15:43.826Z,14.15
2023-05-11T06:16:43.666Z,14.07
2023-05-11T06:17:42.787Z,14.21
2023-05-11T06:18:42.693Z,14.09
2023-05-11T06:19:42.632Z,14.20
2023-05-11T06:20:42.609Z,14.17
2023-05-11T06:21:42.633Z,14.17
2023-05-11T06:22:42.584Z,14.10
2023-05-11T06:23:42.586Z,14.17
2023-05-11T06:24:42.566Z,14.25
2023-05-11T06:25:42.558Z,14.15
2023-05-11T06:26:42.556Z,14.21
2023-05-11T06:27:42.578Z,14.10
2023-05-11T06:28:42.552Z,14.12
2023-05-11T06:29:42.527Z,14.21
2023-05-11T06:30:42.505Z,14.22
2023-05-11T06:31:42.590Z,14.09
2023-05-11T06:32:42.530Z,14.07
2023-05-11T06:33:42.498Z,14.14
2023-05-11T06:34:42.492Z,14.04
2023-05-11T06:35:42.509Z,14.10
2023-05-11T06:36:42.484Z,14.04
2023-05-11T06:37:42.437Z,14.12
2023-05-11T06:38:42.451Z,14.10
2023-05-11T06:39:42.432Z,14.03
2023-05-11T06:40:42.437Z,14.00
2023-05-11T06:41:42.448Z,14.03
2023-05-11T06:42:42.415Z,13.89
2023-05-11T06:43:42.412Z,13.85
2023-05-11T06:44:42.575Z,13.82
2023-05-11T06:45:42.365Z,13.85
2023-05-11T06:46:42.401Z,13.79
2023-05-11T06:47:42.440Z,13.71
2023-05-11T06:48:42.334Z,13.67
2023-05-11T06:49:42.337Z,13.69
2023-05-11T06:50:42.338Z,13.64
2023-05-11T06:51:42.315Z,13.69
2023-05-11T06:52:42.309Z,13.70
2023-05-11T06:53:42.280Z,13.69
2023-05-11T06:54:42.278Z,13.81
2023-05-11T06:55:42.252Z,13.88
2023-05-11T06:56:42.296Z,13.95
2023-05-11T06:57:42.238Z,14.06
2023-05-11T06:58:42.244Z,14.17
2023-05-11T06:59:42.221Z,14.14
2023-05-11T07:00:42.220Z,14.21
2023-05-11T07:01:42.286Z,14.17
2023-05-11T07:02:42.250Z,14.32
2023-05-11T07:03:42.187Z,14.21
2023-05-11T07:04:42.224Z,14.17
2023-05-11T07:05:42.149Z,14.07
2023-05-11T07:06:42.134Z,14.20
2023-05-11T07:07:42.166Z,14.09
2023-05-11T07:08:42.138Z,14.07
2023-05-11T07:09:42.257Z,14.00
2023-05-11T07:10:42.112Z,14.07
2023-05-11T07:11:42.117Z,14.17
2023-05-11T07:12:42.084Z,14.25
2023-05-11T07:13:42.081Z,14.21
2023-05-11T07:14:42.058Z,14.20
2023-05-11T07:15:42.037Z,14.24
2023-05-11T07:16:42.131Z,14.21
2023-05-11T07:17:42.039Z,14.14
2023-05-11T07:18:42.052Z,14.24
2023-05-11T07:19:42.010Z,14.21
2023-05-11T07:20:42.065Z,14.28
2023-05-11T07:21:41.984Z,14.24
2023-05-11T07:22:41.968Z,14.21
2023-05-11T07:23:41.964Z,14.24
2023-05-11T07:24:41.965Z,14.21
2023-05-11T07:25:41.935Z,14.28
2023-05-11T07:26:41.941Z,14.17
2023-05-11T07:27:41.907Z,14.27
2023-05-11T07:28:41.902Z,14.17
2023-05-11T07:29:41.954Z,14.24
2023-05-11T07:30:41.891Z,14.32
2023-05-11T07:31:41.908Z,14.37
2023-05-11T07:32:41.884Z,14.45
2023-05-11T07:33:41.857Z,14.54
2023-05-11T07:34:41.836Z,14.57
2023-05-11T07:35:41.862Z,14.64
2023-05-11T07:36:41.821Z,14.77
2023-05-11T07:37:41.834Z,14.80
2023-05-11T07:38:41.810Z,14.75
2023-05-11T07:39:41.795Z,14.78
2023-05-11T07:40:41.838Z,14.81
2023-05-11T07:41:41.776Z,14.84
2023-05-11T07:42:41.761Z,14.92
2023-05-11T07:43:41.749Z,15.03
2023-05-11T07:44:41.780Z,15.02
2023-05-11T07:45:41.763Z,15.11
2023-05-11T07:46:41.917Z,15.20
2023-05-11T07:47:41.789Z,15.19
2023-05-11T07:48:41.733Z,15.17
2023-05-11T07:49:44.085Z,15.29
2023-05-11T07:50:41.702Z,15.31
2023-05-11T07:51:41.677Z,15.36
2023-05-11T07:52:41.665Z,15.35
2023-05-11T07:53:41.673Z,15.53
2023-05-11T07:54:41.670Z,15.68
2023-05-11T07:55:41.705Z,15.59
2023-05-11T07:56:41.621Z,15.78
2023-05-11T07:57:41.638Z,15.75
2023-05-11T07:58:41.602Z,15.84
2023-05-11T07:59:41.616Z,16.09
2023-05-11T08:00:41.601Z,16.12
2023-05-11T08:01:41.608Z,16.24
2023-05-11T08:02:41.640Z,16.24
2023-05-11T08:03:41.565Z,16.30
2023-05-11T08:04:41.541Z,16.38
2023-05-11T08:05:41.594Z,16.35
2023-05-11T08:06:41.517Z,16.23
2023-05-11T08:07:41.820Z,16.27
2023-05-11T08:08:41.524Z,16.41
2023-05-11T08:09:42.526Z,16.56
2023-05-11T08:10:41.507Z,16.67
2023-05-11T08:11:41.476Z,16.71
2023-05-11T08:12:41.458Z,16.71
2023-05-11T08:13:41.453Z,16.60
2023-05-11T08:14:41.468Z,16.53
2023-05-11T08:15:41.489Z,16.60
2023-05-11T08:16:41.581Z,16.57
2023-05-11T08:17:41.434Z,16.57
2023-05-11T08:18:41.482Z,16.76
2023-05-11T08:19:41.416Z,16.85
2023-05-11T08:20:41.418Z,16.88
2023-05-11T08:21:41.378Z,16.88
2023-05-11T08:22:41.387Z,16.83
2023-05-11T08:23:42.873Z,16.79
2023-05-11T08:24:41.349Z,16.82
2023-05-11T08:25:41.351Z,16.71
2023-05-11T08:26:41.328Z,16.63
2023-05-11T08:27:41.333Z,16.68
2023-05-11T08:28:41.301Z,16.68
2023-05-11T08:29:41.335Z,16.73
2023-05-11T08:30:41.289Z,16.79
2023-05-11T08:31:41.384Z,16.91
2023-05-11T08:32:57.191Z,16.86
2023-05-11T08:33:43.381Z,16.98
2023-05-11T08:34:41.426Z,17.07
2023-05-11T08:35:41.233Z,17.06
2023-05-11T08:36:41.233Z,16.85
2023-05-11T08:37:41.231Z,16.78
2023-05-11T08:38:41.204Z,16.83
2023-05-11T08:39:47.406Z,16.78
2023-05-11T08:40:43.188Z,16.67
2023-05-11T08:41:41.192Z,16.64
2023-05-11T08:42:41.204Z,16.52
2023-05-11T08:43:41.156Z,16.60
2023-05-11T08:44:41.142Z,16.66
2023-05-11T08:45:41.175Z,16.76
2023-05-11T08:46:41.153Z,16.85
2023-05-11T08:47:41.117Z,16.89
2023-05-11T08:48:41.115Z,16.94
2023-05-11T08:49:41.104Z,16.81
2023-05-11T08:50:41.112Z,16.94
2023-05-11T08:51:41.127Z,16.83
2023-05-11T08:52:41.064Z,16.88
2023-05-11T08:53:41.054Z,16.86
2023-05-11T08:54:41.060Z,16.88
2023-05-11T08:55:41.053Z,16.94
2023-05-11T08:56:41.072Z,16.78
2023-05-11T08:57:41.042Z,16.78
2023-05-11T08:58:41.021Z,16.70
2023-05-11T08:59:40.998Z,16.82
2023-05-11T09:00:40.988Z,16.78
2023-05-11T09:01:41.051Z,16.66
2023-05-11T09:02:40.999Z,16.61
2023-05-11T09:03:40.968Z,16.53
2023-05-11T09:04:40.975Z,16.46
2023-05-11T09:05:40.986Z,16.52
2023-05-11T09:06:40.932Z,16.49
2023-05-11T09:07:40.945Z,16.43
2023-05-11T09:08:40.968Z,16.46
2023-05-11T09:09:40.885Z,16.57
2023-05-11T09:10:40.871Z,16.58
2023-05-11T09:11:40.874Z,16.70
2023-05-11T09:12:40.843Z,16.70
2023-05-11T09:13:40.879Z,16.68
2023-05-11T09:14:40.836Z,16.60
2023-05-11T09:15:40.929Z,16.56
2023-05-11T09:16:40.837Z,16.56
2023-05-11T09:17:40.814Z,16.53
2023-05-11T09:18:40.829Z,16.42
2023-05-11T09:19:40.837Z,16.56
2023-05-11T09:20:40.764Z,16.53
2023-05-11T09:21:40.755Z,16.64
2023-05-11T09:22:40.797Z,16.60
2023-05-11T09:23:40.751Z,16.63
2023-05-11T09:24:40.750Z,16.53
2023-05-11T09:25:40.752Z,16.70
2023-05-11T09:26:40.714Z,16.81
2023-05-11T09:27:41.620Z,16.85
2023-05-11T09:29:41.688Z,16.89
2023-05-11T09:30:40.701Z,17.00
2023-05-11T09:31:40.707Z,17.03
2023-05-11T09:32:40.695Z,17.01
2023-05-11T09:33:40.650Z,17.12
2023-05-11T09:34:43.197Z,17.25
2023-05-11T09:35:41.634Z,17.41
2023-05-11T09:36:40.612Z,17.44
2023-05-11T09:37:40.678Z,17.48
2023-05-11T09:38:40.606Z,17.46
2023-05-11T09:39:59.194Z,17.56
2023-05-11T09:40:43.189Z,17.56
2023-05-11T09:41:40.600Z,17.59
2023-05-11T09:42:40.560Z,17.41
2023-05-11T09:43:40.599Z,17.54
2023-05-11T09:44:40.537Z,17.66
2023-05-11T09:45:40.522Z,17.64
2023-05-11T09:46:40.539Z,17.72
2023-05-11T09:47:40.548Z,17.82
2023-05-11T09:48:40.521Z,17.90
2023-05-11T09:49:40.489Z,17.86
2023-05-11T09:50:40.494Z,17.97
2023-05-11T09:51:40.468Z,17.92
2023-05-11T09:52:40.459Z,18.07
2023-05-11T09:53:40.480Z,18.07
2023-05-11T09:54:40.437Z,17.82
2023-05-11T09:55:40.447Z,17.78
2023-05-11T09:56:40.437Z,17.55
2023-05-11T09:57:40.415Z,17.52
2023-05-11T09:58:40.451Z,17.44
2023-05-11T09:59:40.390Z,17.41
2023-05-11T10:00:40.382Z,17.37
2023-05-11T10:01:40.429Z,17.26
2023-05-11T10:02:40.416Z,17.26
2023-05-11T10:03:40.421Z,17.33
2023-05-11T10:04:40.351Z,17.28
2023-05-11T10:05:40.337Z,17.28
2023-05-11T10:06:40.339Z,17.22
2023-05-11T10:07:40.308Z,17.18
2023-05-11T10:08:40.306Z,17.00
2023-05-11T10:09:40.288Z,17.03
2023-05-11T10:10:40.286Z,17.04
2023-05-11T10:11:40.273Z,17.03
2023-05-11T10:12:40.343Z,16.97
2023-05-11T10:13:40.245Z,17.04
2023-05-11T10:14:40.278Z,17.15
2023-05-11T10:15:40.239Z,17.15
2023-05-11T10:16:40.282Z,17.12
2023-05-11T10:17:40.252Z,17.16
2023-05-11T10:18:40.268Z,17.01
2023-05-11T10:19:40.204Z,17.03
2023-05-11T10:20:40.180Z,17.15
2023-05-11T10:21:40.159Z,17.21
2023-05-11T10:22:40.241Z,17.31
2023-05-11T10:23:40.165Z,17.41
2023-05-11T10:24:40.136Z,17.54
2023-05-11T10:25:40.128Z,17.43
2023-05-11T10:26:40.142Z,17.28
2023-05-11T10:27:40.136Z,17.06
2023-05-11T10:28:40.121Z,16.97
2023-05-11T10:29:40.114Z,16.97
2023-05-11T10:30:40.095Z,16.98
2023-05-11T10:31:40.151Z,16.97
2023-05-11T10:32:40.086Z,17.06
2023-05-11T10:33:40.040Z,17.07
2023-05-11T10:34:40.040Z,17.08
2023-05-11T10:36:12.000Z,17.11
2023-05-11T10:36:40.044Z,17.18
2023-05-11T10:37:40.010Z,17.04
2023-05-11T10:38:40.042Z,17.07
2023-05-11T10:39:40.012Z,17.16
2023-05-11T10:40:39.998Z,17.12
2023-05-11T10:41:39.996Z,17.19
2023-05-11T10:42:39.995Z,17.21
2023-05-11T10:43:39.958Z,17.26
2023-05-11T10:44:39.949Z,17.26
2023-05-11T10:45:39.981Z,17.38
2023-05-11T10:46:39.942Z,17.43
2023-05-11T10:47:40.012Z,17.48
2023-05-11T10:48:39.901Z,17.28
2023-05-11T10:49:39.951Z,17.25
2023-05-11T10:50:42.836Z,17.38
2023-05-11T10:51:39.893Z,17.44
2023-05-11T10:52:39.895Z,17.43
2023-05-11T10:53:39.880Z,17.46
2023-05-11T10:54:39.857Z,17.43
2023-05-11T10:55:39.858Z,17.41
2023-05-11T10:56:39.827Z,17.43
2023-05-11T10:57:39.838Z,17.43
2023-05-11T10:58:39.842Z,17.46
2023-05-11T10:59:39.856Z,17.54
2023-05-11T11:00:39.836Z,17.56
2023-05-11T11:01:39.839Z,17.68
2023-05-11T11:02:39.791Z,17.63
2023-05-11T11:03:39.766Z,17.54
2023-05-11T11:04:39.766Z,17.55
2023-05-11T11:05:39.770Z,17.70
2023-05-11T11:06:39.754Z,17.55
2023-05-11T11:07:39.733Z,17.64
2023-05-11T11:08:39.736Z,17.72
2023-05-11T11:09:39.749Z,17.96
2023-05-11T11:10:39.698Z,18.11
2023-05-11T11:11:39.676Z,18.15
2023-05-11T11:12:39.657Z,18.30
2023-05-11T11:13:39.652Z,18.45
2023-05-11T11:14:39.667Z,18.67
2023-05-11T11:15:39.647Z,18.63
2023-05-11T11:16:39.628Z,18.57
2023-05-11T11:17:39.676Z,18.75
2023-05-11T11:18:39.632Z,18.70
2023-05-11T11:19:39.618Z,18.85
2023-05-11T11:20:39.599Z,18.84
2023-05-11T11:21:39.569Z,18.81
2023-05-11T11:22:39.577Z,18.92
2023-05-11T11:23:39.573Z,18.87
2023-05-11T11:24:39.570Z,18.87
2023-05-11T11:25:40.568Z,18.98
2023-05-11T11:26:39.548Z,19.04
2023-05-11T11:27:39.518Z,18.98
2023-05-11T11:28:39.496Z,18.78
2023-05-11T11:29:39.491Z,18.72
2023-05-11T11:30:39.505Z,18.62
2023-05-11T11:31:39.536Z,18.67
2023-05-11T11:32:39.528Z,18.75
2023-05-11T11:33:39.467Z,18.80
2023-05-11T11:34:39.506Z,18.69
2023-05-11T11:35:39.483Z,18.81
2023-05-11T11:36:39.461Z,18.54
2023-05-11T11:37:39.436Z,18.26
2023-05-11T11:38:39.420Z,18.36
2023-05-11T11:39:39.443Z,18.17
2023-05-11T11:40:50.093Z,18.14
2023-05-11T11:41:40.388Z,18.20
2023-05-11T11:42:39.407Z,18.10
2023-05-11T11:43:39.373Z,18.10
2023-05-11T11:44:39.361Z,18.12
2023-05-11T11:45:39.382Z,18.14
2023-05-11T11:46:39.364Z,18.20
2023-05-11T11:47:39.421Z,18.15
2023-05-11T11:48:39.330Z,18.08
2023-05-11T11:49:39.330Z,18.12
2023-05-11T11:50:39.309Z,18.20
2023-05-11T11:51:39.333Z,18.29
2023-05-11T11:52:39.314Z,18.27
2023-05-11T11:53:39.285Z,18.35
2023-05-11T11:54:39.271Z,18.36
2023-05-11T11:55:39.253Z,18.41
2023-05-11T11:56:39.264Z,18.42
2023-05-11T11:57:39.261Z,18.37
2023-05-11T11:58:39.213Z,18.29
2023-05-11T11:59:39.229Z,18.35
2023-05-11T12:00:39.231Z,18.32
2023-05-11T12:01:39.255Z,18.03
2023-05-11T12:02:39.236Z,18.02
2023-05-11T12:03:39.341Z,17.93
2023-05-11T12:04:39.159Z,17.97
2023-05-11T12:05:39.144Z,17.92
2023-05-11T12:06:39.251Z,18.00
2023-05-11T12:07:39.127Z,17.89
2023-05-11T12:08:39.188Z,17.99
2023-05-11T12:09:39.215Z,18.02
2023-05-11T12:10:39.104Z,17.97
2023-05-11T12:11:39.106Z,17.90
2023-05-11T12:12:39.082Z,17.86
2023-05-11T12:13:39.108Z,17.93
2023-05-11T12:14:39.083Z,17.75
2023-05-11T12:15:39.049Z,17.63
2023-05-11T12:16:39.063Z,17.56
2023-05-11T12:17:39.097Z,17.59
2023-05-11T12:18:39.077Z,17.49
2023-05-11T12:19:39.006Z,17.46
2023-05-11T12:20:39.017Z,17.31
2023-05-11T12:21:38.992Z,17.22
2023-05-11T12:22:38.974Z,17.16
2023-05-11T12:23:39.002Z,17.15
2023-05-11T12:24:38.986Z,17.18
2023-05-11T12:25:38.948Z,17.21
2023-05-11T12:26:38.941Z,17.12
2023-05-11T12:27:38.938Z,17.15
2023-05-11T12:28:38.918Z,17.15
2023-05-11T12:29:38.940Z,17.07
2023-05-11T12:30:38.920Z,17.04
2023-05-11T12:31:39.030Z,17.11
2023-05-11T12:32:38.906Z,16.97
2023-05-11T12:33:38.867Z,16.96
2023-05-11T12:34:38.863Z,16.93
2023-05-11T12:35:38.847Z,17.00
2023-05-11T12:36:38.887Z,17.00
2023-05-11T12:37:38.844Z,16.98
2023-05-11T12:38:38.820Z,17.08
2023-05-11T12:39:38.810Z,17.08
2023-05-11T12:40:38.949Z,17.23
2023-05-11T12:41:38.798Z,17.30
2023-05-11T12:42:38.808Z,17.37
2023-05-11T12:43:38.804Z,17.40
2023-05-11T12:44:38.808Z,17.41
2023-05-11T12:45:38.776Z,17.43
2023-05-11T12:46:38.864Z,17.40
2023-05-11T12:47:38.768Z,17.51
2023-05-11T12:48:38.773Z,17.48
2023-05-11T12:49:38.705Z,17.38
2023-05-11T12:50:38.765Z,17.41
2023-05-11T12:51:38.723Z,17.38
2023-05-11T12:52:38.687Z,17.21
2023-05-11T12:53:38.683Z,17.31